Latest Weather Observations for Maningrida Airport

IDD60801

Issued at 6:31 pm CST Saturday 30 July 2016 (issued every 30 minutes, with the page automatically refreshed every 10 minutes)

About weather observations | Map of weather stations | Latest weather observations for NT | Other Formats
Station Details ID: 014405 Name: MANINGRIDA AIRPORT Lat: -12.06 Lon: 134.23 Height: 28.1 m
Data from the previous 72 hours. | See also: Recent months at Maningrida Airport
Date/Time
CST
Temp
°C
App
Temp
°C
Dew
Point
°C
Rel
Hum
%
Delta-T
°C
Wind Press
QNH
hPa
Press
MSL
hPa
Rain since
9am
mm
Dir  Spd
km/h
Gust
km/h
Spd
kts
Gust
kts
30/06:30pm 26.8 27.6 18.1 59 5.5 ENE 11 17 6 9 1009.8 1009.7 0.0
30/06:00pm 28.1 28.5 18.2 55 6.3 NE 13 19 7 10 1009.4 1009.3 0.0
30/05:30pm 29.1 29.2 16.6 46 7.8 ENE 11 15 6 8 1009.1 1009.0 0.0
30/05:00pm 30.0 29.4 15.7 42 8.8 NE 13 17 7 9 1009.2 1009.1 0.0
30/04:30pm 30.6 29.7 15.8 40 9.2 NE 15 20 8 11 1009.1 1009.0 0.0
30/04:00pm 31.0 30.7 17.3 43 8.7 NNE 15 20 8 11 1009.2 1009.1 0.0
30/03:30pm 32.3 29.5 11.5 28 12.2 SE 17 24 9 13 1009.2 1009.1 0.0
30/03:00pm 32.7 29.8 12.3 28 12.1 SE 19 30 10 16 1009.4 1009.3 0.0
30/02:30pm 33.0 30.4 12.1 28 12.4 SE 17 28 9 15 1009.6 1009.5 0.0
30/02:00pm 32.5 29.6 11.1 27 12.5 SE 17 28 9 15 1010.0 1009.9 0.0
30/01:30pm 31.9 28.7 10.0 26 12.5 SE 17 32 9 17 1010.6 1010.5 0.0
30/01:00pm 31.2 27.3 9.4 26 12.3 SSE 20 33 11 18 1011.4 1011.2 0.0
30/12:30pm 32.1 28.4 10.2 26 12.6 SSE 20 32 11 17 1011.8 1011.6 0.0
30/12:00pm 30.7 26.1 9.6 27 11.9 SE 24 35 13 19 1012.3 1012.1 0.0
30/11:30am 30.4 26.5 9.3 27 11.8 SSE 20 32 11 17 1012.8 1012.6 0.0
30/11:00am 29.6 25.6 9.2 28 11.4 SE 20 33 11 18 1013.3 1013.1 0.0
30/10:30am 28.6 23.8 8.8 29 10.9 SSE 24 35 13 19 1013.5 1013.3 0.0
30/10:00am 27.6 22.3 8.5 30 10.4 SSE 26 39 14 21 1013.7 1013.5 0.0
30/09:30am 26.2 21.2 9.5 35 9.2 SSE 26 35 14 19 1014.0 1013.8 0.0
30/09:00am 25.0 20.3 10.5 40 8.1 SE 26 33 14 18 1014.0 1013.8 0.0
30/08:30am 24.3 19.6 10.6 42 7.6 SE 26 39 14 21 1013.7 1013.5 0.0
30/08:00am 22.7 20.1 13.7 56 5.2 SE 20 28 11 15 1013.5 1013.3 0.0
30/07:30am 21.2 20.2 15.5 70 3.4 SSE 15 22 8 12 1013.3 1013.1 0.0
30/07:00am 20.7 19.8 15.9 74 2.9 SSE 15 22 8 12 1012.8 1012.6 0.0
30/06:30am 20.5 20.2 16.5 78 2.4 SSE 13 19 7 10 1012.7 1012.5 0.0
30/06:00am 20.9 20.2 16.3 75 2.8 SSE 15 24 8 13 1012.5 1012.3 0.0
30/05:30am 20.7 20.6 16.9 79 2.3 SSE 13 20 7 11 1012.3 1012.1 0.0
30/05:00am 20.9 20.6 17.3 80 2.2 SSE 15 20 8 11 1012.2 1012.0 0.0
30/04:30am 21.0 21.0 17.2 79 2.3 SSE 13 20 7 11 1012.2 1012.0 0.0
30/04:00am 21.1 21.1 17.1 78 2.4 SSE 13 20 7 11 1012.3 1012.1 0.0
30/03:30am 21.4 20.6 17.0 76 2.7 SE 17 22 9 12 1012.2 1012.0 0.0
30/03:00am 22.0 20.7 16.7 72 3.2 SSE 19 24 10 13 1012.4 1012.2 0.0
30/02:30am 22.2 21.2 16.5 70 3.5 SSE 17 20 9 11 1012.6 1012.4 0.0
30/02:00am 22.7 21.7 16.5 68 3.8 SSE 17 26 9 14 1012.6 1012.4 0.0
30/01:30am 22.9 21.9 16.7 68 3.8 SSE 17 22 9 12 1012.9 1012.7 0.0
30/01:00am 23.2 21.9 16.7 67 4.0 SSE 19 26 10 14 1013.1 1012.9 0.0
30/12:30am 23.2 21.7 16.3 65 4.2 SE 19 24 10 13 1013.3 1013.1 0.0
30/12:00am 23.8 22.3 16.3 63 4.6 SE 19 22 10 12 1013.5 1013.3 0.0
 
Date/Time
CST
Temp
°C
App
Temp
°C
Dew
Point
°C
Rel
Hum
%
Delta-T
°C
Wind Press
QNH
hPa
Press
MSL
hPa
Rain since
9am
mm
Dir  Spd
km/h
Gust
km/h
Spd
kts
Gust
kts
29/11:30pm 23.8 22.6 16.1 62 4.7 SE 17 20 9 11 1013.8 1013.6 0.0
29/11:00pm 24.0 23.1 15.8 60 5.0 ESE 15 19 8 10 1013.8 1013.6 0.0
29/10:30pm 24.6 23.3 15.8 58 5.3 ESE 17 22 9 12 1013.7 1013.5 0.0
29/10:00pm 25.2 23.2 15.5 55 5.9 SE 20 32 11 17 1013.4 1013.2 0.0
29/09:30pm 25.5 23.9 14.9 52 6.4 SE 17 24 9 13 1013.1 1012.9 0.0
29/09:00pm 26.0 24.3 14.8 50 6.7 SE 17 22 9 12 1012.7 1012.5 0.0
29/08:30pm 26.7 25.0 14.8 48 7.2 SE 17 22 9 12 1012.4 1012.2 0.0
29/08:00pm 27.3 25.2 14.7 46 7.6 ESE 19 28 10 15 1011.9 1011.7 0.0
29/07:30pm 27.7 26.4 14.7 45 7.9 ESE 15 22 8 12 1011.1 1011.0 0.0
29/07:00pm 28.3 27.3 14.5 43 8.3 SE 13 17 7 9 1010.7 1010.6 0.0
29/06:30pm 29.0 27.9 14.4 41 8.8 ESE 13 19 7 10 1010.4 1010.3 0.0
29/06:00pm 29.9 28.7 14.0 37 9.6 ESE 13 19 7 10 1010.0 1009.9 0.0
29/05:30pm 30.9 29.1 13.2 34 10.6 ESE 15 22 8 12 1009.9 1009.8 0.0
29/05:00pm 32.1 29.9 13.3 31 11.3 SSE 17 26 9 14 1009.7 1009.6 0.0
29/04:30pm 31.9 29.5 12.7 31 11.4 SE 17 22 9 12 1009.6 1009.5 0.0
29/04:00pm 32.3 29.9 12.5 30 11.8 SE 17 24 9 13 1009.8 1009.7 0.0
29/03:30pm 32.5 30.5 12.7 30 11.8 SE 15 30 8 16 1010.0 1009.9 0.0
29/03:00pm 32.4 29.4 12.1 29 12.0 SE 19 33 10 18 1010.0 1009.9 0.0
29/02:30pm 32.2 29.3 12.4 30 11.8 SE 19 33 10 18 1010.4 1010.3 0.0
29/02:00pm 32.1 29.1 11.8 29 11.9 SE 19 28 10 15 1010.9 1010.8 0.0
29/01:30pm 31.9 28.6 11.7 29 11.8 SE 20 30 11 16 1011.5 1011.3 0.0
29/01:00pm 30.9 27.0 10.8 29 11.6 SSE 22 37 12 20 1011.8 1011.6 0.0
29/12:30pm 30.7 26.9 11.1 30 11.3 SE 22 33 12 18 1012.3 1012.1 0.0
29/12:00pm 30.2 24.6 10.2 29 11.4 SE 30 43 16 23 1012.8 1012.6 0.0
29/11:30am 29.9 25.5 10.5 30 11.1 SE 24 35 13 19 1013.1 1012.9 0.0
29/11:00am 28.8 23.7 10.5 32 10.4 SSE 28 37 15 20 1013.6 1013.4 0.0
29/10:30am 27.9 22.3 10.1 33 10.0 SSE 30 41 16 22 1013.9 1013.7 0.0
29/10:00am 27.3 21.7 10.1 34 9.6 SE 30 41 16 22 1013.8 1013.6 0.0
29/09:35am 26.9 21.8 10.6 36 9.2 SSE 28 46 15 25 1014.0 1013.8 0.0
29/09:30am 26.9 21.0 10.6 36 9.2 SE 32 43 17 23 1014.0 1013.8 0.0
29/09:00am 25.8 21.4 11.6 41 8.1 SE 26 41 14 22 1014.1 1013.9 0.0
29/08:30am 24.7 20.9 12.3 46 7.1 SE 24 30 13 16 1013.9 1013.7 0.0
29/08:00am 23.4 20.3 13.3 53 5.9 SSE 22 30 12 16 1013.6 1013.4 0.0
29/07:30am 22.4 20.1 14.0 59 4.9 SE 19 28 10 15 1013.3 1013.1 0.0
29/07:00am 22.0 19.1 14.1 61 4.6 SSE 22 32 12 17 1012.9 1012.7 0.0
29/06:30am 21.8 19.4 14.4 63 4.3 SE 20 30 11 16 1012.6 1012.4 0.0
29/06:00am 21.7 19.5 14.8 65 4.1 SSE 20 28 11 15 1012.5 1012.3 0.0
29/05:30am 21.8 19.6 14.9 65 4.1 SSE 20 30 11 16 1012.3 1012.1 0.0
29/05:00am 22.0 20.2 15.4 66 3.9 SSE 19 30 10 16 1012.4 1012.2 0.0
29/04:30am 22.0 20.0 15.4 66 3.9 SSE 20 24 11 13 1012.5 1012.3 0.0
29/04:00am 22.0 20.6 15.6 67 3.8 SSE 17 24 9 13 1012.8 1012.6 0.0
29/03:30am 21.9 20.9 15.5 67 3.8 SSE 15 20 8 11 1012.8 1012.6 0.0
29/03:00am 22.1 21.4 15.5 66 3.9 SSE 13 19 7 10 1013.2 1013.0 0.0
29/02:30am 22.4 21.7 15.3 64 4.2 SSE 13 22 7 12 1013.4 1013.2 0.0
29/02:00am 23.1 22.4 15.4 62 4.6 SSE 13 19 7 10 1013.5 1013.3 0.0
29/01:30am 23.7 22.6 15.2 59 5.1 SSE 15 20 8 11 1013.8 1013.6 0.0
29/01:00am 24.1 23.3 15.1 57 5.4 SSE 13 20 7 11 1014.2 1014.0 0.0
29/12:30am 24.4 23.7 15.3 57 5.5 SSE 13 20 7 11 1014.4 1014.2 0.0
29/12:00am 24.4 23.7 15.3 57 5.5 SSE 13 20 7 11 1014.2 1014.0 0.0
 
Date/Time
CST
Temp
°C
App
Temp
°C
Dew
Point
°C
Rel
Hum
%
Delta-T
°C
Wind Press
QNH
hPa
Press
MSL
hPa
Rain since
9am
mm
Dir  Spd
km/h
Gust
km/h
Spd
kts
Gust
kts
28/11:30pm 24.5 23.5 15.7 58 5.3 SSE 15 20 8 11 1014.4 1014.2 0.0
28/11:00pm 24.4 23.9 15.9 59 5.2 SSE 13 19 7 10 1014.6 1014.4 0.0
28/10:30pm 24.3 23.8 15.8 59 5.2 SE 13 19 7 10 1014.7 1014.5 0.0
28/10:00pm 24.3 22.6 15.8 59 5.2 ESE 19 24 10 13 1014.9 1014.7 0.0
28/09:30pm 24.9 22.6 15.8 57 5.5 ESE 22 32 12 17 1014.7 1014.5 0.0
28/09:00pm 25.2 22.5 15.5 55 5.9 ESE 24 39 13 21 1014.3 1014.1 0.0
28/08:41pm 25.7 23.4 15.7 54 6.1 ESE 22 35 12 19 1014.0 1013.8 0.0
28/08:30pm 25.8 23.8 15.5 53 6.3 ESE 20 32 11 17 1013.9 1013.7 0.0
28/08:00pm 26.4 24.4 15.4 50 6.7 ESE 20 26 11 14 1013.3 1013.1 0.0
28/07:30pm 26.8 25.7 15.2 49 7.0 SE 15 19 8 10 1012.5 1012.3 0.0
28/07:05pm 26.9 26.1 15.0 48 7.2 SE 13 19 7 10 1012.3 1012.1 0.0
28/07:00pm 27.3 26.6 15.3 48 7.3 SE 13 19 7 10 1012.2 1012.0 0.0
28/06:30pm 28.1 27.5 14.7 44 8.1 ESE 11 13 6 7 1011.7 1011.5 0.0
28/06:00pm 29.2 28.1 14.2 40 9.0 ESE 13 19 7 10 1011.1 1011.0 0.0
28/05:30pm 30.3 28.3 14.0 37 9.8 ESE 17 24 9 13 1010.7 1010.6 0.0
28/05:00pm 31.2 29.1 13.5 34 10.6 ESE 17 24 9 13 1010.5 1010.4 0.0
28/04:30pm 31.6 28.7 12.9 32 11.2 SE 20 32 11 17 1010.1 1010.0 0.0
28/04:00pm 32.0 29.4 13.2 31 11.3 ESE 19 30 10 16 1010.1 1010.0 0.0
28/03:30pm 32.0 29.3 12.8 31 11.5 ESE 19 28 10 15 1010.2 1010.1 0.0
28/03:00pm 32.1 28.3 12.3 29 11.7 SE 24 33 13 18 1010.5 1010.4 0.0
28/02:30pm 32.1 28.3 12.3 29 11.7 ESE 24 35 13 19 1010.7 1010.6 0.0
28/02:00pm 31.8 28.8 12.6 31 11.4 SE 20 32 11 17 1011.1 1011.0 0.0
28/01:30pm 31.1 27.3 12.5 32 11.0 ESE 24 37 13 20 1011.8 1011.6 0.0
28/01:00pm 30.9 26.7 12.3 32 11.0 SE 26 43 14 23 1012.5 1012.3 0.0
28/12:30pm 29.8 26.2 11.8 33 10.5 SE 22 35 12 19 1013.0 1012.8 0.0
28/12:00pm 29.9 26.1 12.3 33 10.3 SE 24 35 13 19 1013.4 1013.2 0.0
28/11:30am 28.3 23.5 11.8 36 9.5 SE 28 43 15 23 1014.0 1013.8 0.0
28/11:00am 27.3 22.4 11.3 37 9.1 SE 28 43 15 23 1014.3 1014.1 0.0
28/10:30am 26.5 21.2 11.4 39 8.6 SSE 30 48 16 26 1014.5 1014.3 0.0
28/10:00am 25.5 20.7 11.7 42 7.9 SSE 28 46 15 25 1014.8 1014.6 0.0
28/09:30am 25.1 19.5 12.0 44 7.5 SSE 33 57 18 31 1014.9 1014.7 0.0
28/09:01am 24.2 19.4 12.8 49 6.6 SSE 30 52 16 28 1015.0 1014.8 0.0
28/09:00am 24.0 19.1 12.6 49 6.5 SSE 30 46 16 25 1014.9 1014.7 0.0
28/08:44am 23.2 18.5 13.1 53 5.8 SSE 30 50 16 27 1014.9 1014.7 0.0
28/08:30am 22.7 17.9 12.9 54 5.6 SSE 30 41 16 22 1014.8 1014.6 0.0
28/08:00am 21.6 18.6 13.8 61 4.5 SSE 22 35 12 19 1014.7 1014.5 0.0
28/07:30am 19.8 17.3 14.2 70 3.2 SSE 20 33 11 18 1014.4 1014.2 0.0
28/07:00am 18.7 16.2 13.6 72 2.9 SSE 19 28 10 15 1014.2 1014.0 0.0
28/06:30am 18.6 16.5 13.5 72 2.9 SSE 17 30 9 16 1014.0 1013.8 0.0
28/06:00am 18.3 16.7 12.7 70 3.1 S 13 20 7 11 1013.9 1013.7 0.0
28/05:30am 18.3 16.6 12.3 68 3.3 SSE 13 20 7 11 1013.9 1013.7 0.0
28/05:00am 18.4 16.7 12.4 68 3.3 S 13 19 7 10 1013.8 1013.6 0.0
28/04:30am 17.7 16.9 13.0 74 2.6 S 9 13 5 7 1013.7 1013.5 0.0
28/04:00am 17.1 16.5 13.6 80 2.0 S 9 13 5 7 1013.7 1013.5 0.0
28/03:30am 17.5 17.4 13.8 79 2.1 SSW 7 11 4 6 1014.1 1013.9 0.0
28/03:00am 17.5 17.1 14.0 80 2.0 S 9 13 5 7 1014.1 1013.9 0.0
28/02:30am 18.0 18.0 13.7 76 2.4 SSE 6 7 3 4 1014.1 1013.9 0.0
28/02:00am 19.9 19.6 14.5 71 3.1 SSE 9 13 5 7 1014.3 1014.1 0.0
28/01:30am 19.6 19.4 14.8 74 2.8 SSE 9 13 5 7 1014.4 1014.2 0.0
28/01:00am 20.4 21.1 15.6 74 2.9 S 6 9 3 5 1014.7 1014.5 0.0
28/12:30am 21.6 21.5 15.9 70 3.4 SSE 11 17 6 9 1014.8 1014.6 0.0
28/12:00am 22.0 21.5 15.8 68 3.7 SSE 13 17 7 9 1015.0 1014.8 0.0
 
Date/Time
CST
Temp
°C
App
Temp
°C
Dew
Point
°C
Rel
Hum
%
Delta-T
°C
Wind Press
QNH
hPa
Press
MSL
hPa
Rain since
9am
mm
Dir  Spd
km/h
Gust
km/h
Spd
kts
Gust
kts
27/11:30pm 23.0 22.6 16.1 65 4.2 ESE 13 19 7 10 1015.1 1014.9 0.0
27/11:00pm 23.5 22.6 15.8 62 4.7 SE 15 20 8 11 1015.0 1014.8 0.0
27/10:30pm 24.1 23.5 15.6 59 5.1 ESE 13 19 7 10 1015.0 1014.8 0.0
27/10:00pm 24.6 23.2 15.5 57 5.5 SE 17 22 9 12 1015.0 1014.8 0.0
27/09:30pm 25.1 24.3 15.1 53 6.0 ESE 13 22 7 12 1014.8 1014.6 0.0
27/09:00pm 25.7 24.1 15.1 52 6.4 ESE 17 22 9 12 1014.4 1014.2 0.0
27/08:30pm 26.1 24.7 14.6 49 6.9 ESE 15 20 8 11 1013.9 1013.7 0.0
27/08:00pm 26.5 24.3 14.3 47 7.3 ESE 19 26 10 14 1013.5 1013.3 0.0
27/07:30pm 26.8 25.6 13.9 45 7.7 ESE 13 17 7 9 1013.1 1012.9 0.0
27/07:00pm 27.5 26.2 13.8 43 8.1 ESE 13 19 7 10 1012.7 1012.5 0.0

Other Formats:

Comma delimited format used in spreadsheet applications
http://www.bom.gov.au/fwo/IDD60801/IDD60801.95142.axf

JavaScript Object Notation format (JSON) in row-major order
http://www.bom.gov.au/fwo/IDD60801/IDD60801.95142.json